CA-0176 weather

CLOSED Johnson Point Airport
Northwest Territories, Canada

Public forecast

Using degrees Celsius for public forecast. Weather courtesy of forecast.io.

Closest aviation weather report (METAR) to Johnson Point Airport

Closest report is Sachs Harbour (David Nasogaluak Jr. Saaryuaq) Airport, 131.0 nm (242.5 km) WSW. Retrieved 2019/12/09 15:00 UTC (20 minutes ago):

CYSY 091500Z 05007KT 10SM FEW050 M28/M32 A3032 RMK SC2 SLP284

Closest aviation forecast (TAF) to Johnson Point Airport

Closest forecast is Sachs Harbour (David Nasogaluak Jr. Saaryuaq) Airport, 131.0 nm (242.5 km) WSW. Retrieved 2019/12/09 16:00 UTC (0 seconds ago):

TAF CYSY 091538Z 0916/0924 05007KT P6SM FEW050 TEMPO 0916/0924 5SM IC RMK NXT FCST BY 091900Z